Weather observations for the past three days for
Big Sandy Regional Airport
Imperial (Metric)
Date Time (edt) Wind (mph) Vis. (mi.) Weather Sky Cond. Temperature (ºF) Relative Humidity Wind Chill (°F) Heat Index (°F) Pressure Precipitation (in)
Air Dwpt 6 hour altimeter (in) sea level (mb) 1 hr 3 hr 6 hr
Max. Min.
05 16:35 SW 12 G 20 10.00 Fair CLR 73.2 43.7 35% 29.86 0.0
05 16:15 SW 8 10.00 Fair CLR 72.9 44.4 36% 29.87 0.0
05 15:35 SW 9 10.00 Mostly Cloudy BKN065 BKN075 73.6 44.4 35% 29.89 0.0
05 15:15 SW 13 G 18 10.00 Partly Cloudy SCT065 75.2 45.3 35% 77 29.9 0.0
05 14:55 SW 8 G 16 10.00 Mostly Cloudy BKN065 73.8 44.8 36% 29.9 0.0
05 14:35 SW 13 G 17 10.00 Mostly Cloudy BKN065 73.6 44.4 35% 29.9 0.0
05 14:15 SW 14 G 21 10.00 Partly Cloudy SCT065 SCT080 74.3 44.8 35% 29.91 0.0
05 13:55 W 10 G 17 10.00 Mostly Cloudy BKN060 74.7 46 74.8 62.8 36% 29.91 0.0
05 13:35 SW 13 G 18 10.00 Mostly Cloudy BKN060 73.9 45.3 36% 29.91 0.0
05 13:15 SW 8 10.00 Partly Cloudy SCT060 74.3 46 37% 29.92 0.0
05 12:55 SW 14 G 18 10.00 Partly Cloudy SCT060 73.4 45.9 38% 29.92 0.0
05 12:35 SW 10 G 17 10.00 Mostly Cloudy BKN060 72.5 46.2 39% 29.93 0.0
05 12:15 SW 5 10.00 Partly Cloudy SCT060 72.1 47.1 41% 29.93 0.0
05 11:55 SW 7 10.00 Mostly Cloudy BKN060 71.4 46.6 41% 29.93 0.0
05 11:35 SW 9 G 17 10.00 Partly Cloudy SCT060 71.4 46.4 41% 29.94 0.0
05 11:15 SW 10 10.00 Fair CLR 71.6 46.6 41% 29.94 0.0
05 10:55 SW 8 10.00 Fair CLR 71.4 46.8 42% 29.93 0.0
05 10:35 SW 8 G 17 10.00 Fair CLR 69.8 45.7 42% 29.93 0.0
05 10:15 SW 10 G 17 10.00 Partly Cloudy SCT065 69.1 46 44% 29.93 0.0
05 09:55 SW 6 10.00 Partly Cloudy SCT065 68.2 46 45% 29.94 0.0
05 09:35 SW 8 10.00 Mostly Cloudy BKN065 67.3 46 47% 29.94 0.0
05 09:15 S 8 10.00 Mostly Cloudy BKN065 66.7 45.5 47% 29.94 0.0
05 08:55 SW 10 10.00 Mostly Cloudy BKN065 66 45.3 47% 29.93 0.0
05 08:35 S 8 10.00 Overcast OVC065 64.8 45.1 49% 29.94 0.0
05 08:15 SW 6 10.00 Overcast OVC065 64 45 50% 29.94 0.0
05 07:55 S 6 10.00 Overcast OVC065 62.8 44.6 65.1 61 52% 29.93 0.0
05 07:35 S 7 10.00 Overcast OVC065 62.4 44.6 52% 29.92 0.0
05 07:15 S 6 10.00 Mostly Cloudy BKN065 61.3 43.9 53% 29.91 0.0
05 06:55 S 7 10.00 Partly Cloudy SCT065 61 43.7 53% 29.9 0.0
05 06:35 S 7 10.00 Partly Cloudy SCT065 61.3 43.7 53% 29.9 0.0
05 06:15 SW 7 10.00 Fair CLR 62.2 43.7 51% 29.9 0.0
05 05:55 SW 6 10.00 Fair CLR 62.6 43.9 51% 29.9 0.0
05 05:35 SW 7 10.00 Fair CLR 62.4 44.2 52% 29.89 0.0
05 05:15 SW 7 10.00 Fair CLR 62.6 44.2 51% 29.89 0.0
05 04:55 SW 6 10.00 Fair CLR 63.1 44.6 51% 29.89 0.0
05 04:35 SW 6 10.00 Fair CLR 63.5 44.8 51% 29.89 0.0
05 04:15 SW 5 10.00 Fair CLR 63.5 45 51% 29.89 0.0
05 03:55 SW 8 10.00 Fair CLR 63.9 45.1 51% 29.88 0.0
05 03:35 SW 6 10.00 Fair CLR 64.2 45.5 51% 29.88 0.0
05 03:15 SW 6 10.00 Fair CLR 64.6 45.5 50% 29.88 0.0
05 02:55 SW 6 10.00 Mostly Cloudy BKN065 64.4 45.9 51% 29.88 0.0
05 02:35 SW 6 10.00 Mostly Cloudy BKN065 65.1 46.2 51% 29.89 0.0
05 02:15 SW 6 10.00 Partly Cloudy SCT065 64.8 46.4 52% 29.89 0.0
05 01:55 SW 5 10.00 Partly Cloudy SCT065 65.3 46 72.7 65.3 50% 29.89 0.0
05 01:35 SW 5 10.00 Fair CLR 65.8 45.7 48% 29.89 0.0
05 01:15 SW 6 10.00 Fair CLR 66 45.5 48% 29.88 0.0
05 00:55 SW 6 10.00 Fair CLR 66.2 45.5 47% 29.87 0.0
05 00:35 SW 5 10.00 Partly Cloudy SCT070 66.4 45.1 46% 29.87 0.0
05 00:15 SW 5 10.00 Partly Cloudy SCT070 66.7 45.5 47% 29.86 0.0
04 23:55 SW 6 10.00 Partly Cloudy SCT070 67.1 45.1 45% 29.86 0.0
04 23:35 SW 7 10.00 Partly Cloudy SCT070 67.5 45 44% 29.85 0.0
04 23:15 SW 6 10.00 Partly Cloudy SCT070 68.2 44.6 43% 29.85 0.0
04 22:55 SW 8 10.00 Fair CLR 67.6 44.8 44% 29.85 0.0
04 22:35 SW 7 10.00 Fair CLR 68 44.8 43% 29.84 0.0
04 22:15 S 7 10.00 Fair CLR 67.5 45.3 45% 29.84 0.0
04 21:55 S 7 10.00 Fair CLR 68.2 45.5 44% 29.84 0.0
04 21:35 S 6 10.00 Fair CLR 68.7 45.9 44% 29.84 0.0
04 21:15 S 8 10.00 Fair CLR 69.3 45.9 43% 29.84 0.0
04 20:55 S 8 10.00 Fair CLR 69.8 46 43% 29.84 0.0
04 20:35 S 8 10.00 Fair CLR 70.3 46.4 43% 29.84 0.0
04 20:15 SW 8 10.00 Fair CLR 71.8 46 40% 29.84 0.0
04 19:55 SW 7 10.00 Fair CLR 72.9 46.6 77 69.6 39% 29.84 0.0
04 19:35 SW 7 10.00 Fair CLR 73.9 47.5 39% 29.84 0.0
04 19:15 SW 6 10.00 Fair CLR 74.3 46.6 37% 29.84 0.0
04 18:55 SW 7 10.00 Fair CLR 74.7 47.1 38% 29.84 0.0
04 18:35 W 8 10.00 Fair CLR 75.6 47.8 38% 78 29.85 0.0
04 18:15 SW 8 10.00 Fair CLR 75.7 47.7 37% 78 29.85 0.0
04 17:55 SW 9 10.00 Fair CLR 75.9 47.5 37% 78 29.85 0.0
04 17:15 SW 10 G 17 10.00 Fair CLR 76.6 48.4 37% 78 29.85 0.0
04 16:55 W 6 10.00 Fair CLR 76.3 49.6 39% 78 29.86 0.0
04 16:35 SW 10 10.00 Fair CLR 76.5 49.6 39% 78 29.86 0.0
04 16:15 SW 9 10.00 Fair CLR 75.6 49.3 40% 78 29.87 0.0
04 15:55 SW 12 G 22 10.00 Fair CLR 74.5 48.7 40% 29.87 0.0
04 15:35 SW 10 G 18 10.00 Fair CLR 74.5 48.9 41% 29.88 0.0
04 15:15 SW 12 10.00 Fair CLR 74.3 48.6 40% 29.88 0.0
04 14:55 SW 12 G 16 10.00 Fair CLR 72.9 48 41% 29.89 0.0
04 14:35 SW 13 G 18 10.00 Fair CLR 72.5 49.5 44% 29.89 0.0
04 14:15 S 13 G 20 10.00 Fair CLR 71.6 50 47% 29.9 0.0
04 13:55 SW 9 10.00 Partly Cloudy SCT120 69.1 49.8 69.6 49.5 50% 29.9 0.0 0.06
04 13:35 SW 6 10.00 Partly Cloudy SCT120 66.9 49.6 54% 29.91 0.0
04 13:15 SW 9 10.00 Partly Cloudy SCT120 66 50.2 57% 29.91 0.0
04 12:55 SW 8 G 16 10.00 Mostly Cloudy SCT031 SCT070 BKN120 60.4 49.1 66% 29.92 0.0
04 12:35 SW 6 G 25 10.00 Light Rain BKN027 BKN046 OVC100 58.5 48.9 71% 29.93 0.0
04 12:15 SW 6 10.00 Rain SCT017 SCT023 BKN034 59.2 49.3 70% 29.95 0.0
04 11:55 SW 5 G 16 10.00 Partly Cloudy SCT100 59.7 48.4 66% 29.96 0.0
04 11:35 SW 6 10.00 Mostly Cloudy SCT034 SCT070 BKN100 58.8 49.8 72% 29.99 0.0
04 11:15 SW 6 10.00 Mostly Cloudy SCT021 SCT050 BKN100 58.8 50.7 75% 29.97 0.0
04 10:55 S 6 10.00 Overcast SCT024 BKN090 OVC110 57.4 49.5 75% 29.97 0.0 0.06
04 10:35 SW 7 G 16 10.00 Partly Cloudy SCT110 58.1 49.6 74% 29.98 0.0
04 10:15 SW 9 10.00 Partly Cloudy SCT085 56.8 48.9 75% 29.98 0.0
04 09:55 SW 7 10.00 Partly Cloudy SCT085 55.4 49.6 81% 29.99 0.0
04 09:35 SW 6 10.00 Mostly Cloudy SCT085 BKN110 53.1 48.6 85% 30 0.0
04 09:15 SW 6 10.00 Overcast BKN085 OVC110 50.9 47.3 88% 29.99 0.0
04 08:55 W 6 10.00 Overcast SCT048 SCT070 OVC085 50.4 47.3 89% 29.99 0.0 0.06
04 08:35 W 5 G 21 10.00 Light Rain BKN070 OVC085 49.5 45.5 86% 48 29.98 0.0 0.06
04 08:15 W 12 G 22 10.00 Rain BKN070 OVC080 50.7 43.3 76% 29.99 0.0 0.03
04 07:55 W 9 G 16 10.00 Light Rain BKN070 OVC100 52.7 38.8 52.7 50.4 59% 30 0.0
04 07:35 Calm 10.00 Mostly Cloudy SCT070 BKN100 52.3 37.2 57% 29.97 0.0
04 07:15 Calm 10.00 Partly Cloudy SCT100 52 36.9 57% 29.96 0.0
04 06:55 SW 3 10.00 Mostly Cloudy SCT080 BKN100 50.9 36.5 58% 29.96 0.0
04 06:35 SW 5 10.00 Mostly Cloudy BKN080 BKN110 51.8 36.1 55% 29.95 0.0
04 06:15 Calm 10.00 Mostly Cloudy SCT080 BKN110 51.8 36 55% 29.95 0.0
04 05:55 SW 5 10.00 Partly Cloudy SCT065 SCT075 SCT100 52 35.8 54% 29.95 0.0
04 05:15 SW 5 10.00 Overcast BKN090 OVC110 50.5 35.4 56% 29.97 0.0
04 04:55 SW 5 10.00 Mostly Cloudy SCT080 BKN110 51.8 34.3 52% 29.98 0.0
04 04:35 Calm 10.00 Mostly Cloudy SCT100 BKN120 51.1 34.2 53% 29.97 0.0
04 04:15 S 5 10.00 Overcast BKN090 OVC110 50.9 34 52% 29.97 0.0
04 03:55 S 3 10.00 Overcast BKN080 OVC110 51.1 33.6 51% 29.98 0.0
04 03:35 Calm 10.00 Overcast BKN090 OVC110 51.6 33.1 49% 29.98 0.0
04 03:15 S 5 10.00 Overcast BKN090 OVC120 51.1 33.1 50% 29.98 0.0
04 02:55 S 5 10.00 Mostly Cloudy BKN090 BKN110 51.1 33.1 50% 29.99 0.0
04 02:35 Calm 10.00 Mostly Cloudy SCT080 BKN100 51.3 33.1 50% 29.99 0.0
04 02:15 S 3 10.00 Overcast SCT080 OVC110 52.2 33.3 49% 30 0.0
04 01:55 S 5 10.00 Overcast OVC110 51.8 32.9 58.6 49.6 49% 30 0.0
04 01:35 Calm 10.00 Mostly Cloudy BKN110 52.3 32 46% 30.02 0.0
04 01:15 SW 3 10.00 Partly Cloudy SCT120 50.9 32.2 49% 30.02 0.0
04 00:55 Calm 10.00 Fair CLR 51.1 31.5 47% 30.02 0.0
04 00:35 Calm 10.00 Fair CLR 50.9 31.1 47% 30.03 0.0
04 00:15 SW 5 10.00 Fair CLR 52 30.4 44% 30.02 0.0
03 23:55 SW 5 10.00 Partly Cloudy SCT110 51.1 30.6 45% 30.02 0.0
03 23:35 SW 3 10.00 Overcast OVC110 52.2 31.6 46% 30.02 0.0
03 23:15 Calm 10.00 Mostly Cloudy BKN110 50.2 31.8 49% 30 0.0
03 22:55 Calm 10.00 Partly Cloudy SCT110 53.4 30.6 42% 30 0.0
03 22:35 Calm 10.00 Partly Cloudy SCT120 53.1 31.3 44% 30 0.0
03 22:15 S 5 10.00 Partly Cloudy SCT120 55 29.8 38% 29.99 0.0
03 21:55 Calm 10.00 Partly Cloudy SCT110 56.7 29.1 35% 29.99 0.0
03 21:35 Calm 10.00 Partly Cloudy SCT120 56.3 29.5 36% 29.99 0.0
03 21:15 Calm 10.00 Mostly Cloudy SCT090 BKN120 57.4 28.6 33% 29.99 0.0
03 20:55 Calm 10.00 Partly Cloudy SCT120 57.6 28 32% 30 0.0
03 20:35 Calm 10.00 Fair CLR 56.7 28 33% 30 0.0
03 20:15 Calm 10.00 Fair CLR 57.7 27.9 32% 30 0.0
03 19:55 W 3 10.00 Fair CLR 58.8 27.1 63 58.3 30% 29.99 0.0
03 19:35 W 3 10.00 Fair CLR 60.8 26.8 27% 30 0.0
03 19:15 W 5 10.00 Fair CLR 61.3 27.3 27% 30 0.0
03 18:55 SW 6 10.00 Fair CLR 61.9 25.9 25% 30 0.0
03 18:35 SW 7 10.00 Fair CLR 61.7 24.6 24% 30.01 0.0
03 18:15 W 7 10.00 Fair CLR 62.6 25.2 24% 30.01 0.0
03 17:55 W 8 10.00 Fair CLR 62.2 25.2 24% 30.01 0.0
03 17:35 W 6 G 10 10.00 Fair CLR 62.6 25 24% 30.02 0.0
03 17:15 W 3 10.00 Fair CLR 62.2 25.5 25% 30.02 0.0
03 16:55 S 9 10.00 Fair CLR 62.2 26.8 26% 30.03 0.0
03 16:35 S 12 G 20 10.00 Fair CLR 62.2 25.9 25% 30.03 0.0
03 16:15 SW 7 10.00 Fair CLR 61.2 25.7 26% 30.04 0.0
03 15:55 SW 3 G 16 10.00 Fair CLR 60.6 26.4 27% 30.06 0.0
03 15:35 S 9 10.00 Fair CLR 61.5 27 27% 30.07 0.0
03 15:15 SW 6 10.00 Fair CLR 59.9 25.3 27% 30.08 0.0
03 14:35 N 3 10.00 Fair CLR 58.8 25.2 27% 30.09 0.0
03 14:15 W 7 10.00 Fair CLR 58.8 27.3 30% 30.11 0.0
03 13:55 NW 5 10.00 Fair CLR 58.5 27.9 59.2 37 31% 30.11 0.0
03 13:35 S 6 10.00 Fair CLR 58.6 28.2 31% 30.12 0.0
03 13:15 Calm 10.00 Fair CLR 55.4 26.2 33% 30.13 0.0
03 12:55 Calm 10.00 Fair CLR 55.6 27.7 34% 30.14 0.0
03 12:35 SE 3 10.00 Fair CLR 55.4 27.9 35% 30.15 0.0
03 12:15 SE 5 10.00 Fair CLR 54.3 26.4 34% 30.16 0.0
03 11:55 NW 5 10.00 Fair CLR 53.8 27 36% 30.16 0.0
03 11:35 Calm 10.00 Fair CLR 54 25.3 33% 30.17 0.0
03 11:15 N 3 10.00 Fair CLR 52.5 23.7 33% 30.17 0.0
03 10:55 W 5 10.00 Fair CLR 51.3 25.9 37% 30.17 0.0
03 10:35 NW 5 10.00 Fair CLR 50.5 26.1 39% 30.17 0.0
03 10:15 S 3 10.00 Fair CLR 48.9 30.4 49% 30.17 0.0
03 09:55 SW 3 10.00 Fair CLR 47.3 31.5 54% 30.17 0.0
03 09:35 SW 5 10.00 Fair CLR 45.9 32.2 59% 44 30.17 0.0
03 09:15 SW 3 10.00 Fair CLR 43.7 32 64% 30.16 0.0
03 08:35 SW 3 10.00 Fair CLR 40.1 32.2 73% 30.16 0.0
03 08:15 SW 3 10.00 Fair CLR 39.2 32.7 78% 30.16 0.0
03 07:55 SW 3 10.00 Fair CLR 36.9 32.4 39.4 33.8 84% 30.15 0.0
03 07:35 Calm 10.00 Fair CLR 35.1 32 89% 30.14 0.0
03 07:15 Calm 10.00 Fair CLR 34.7 32 90% 30.13 0.0
03 06:55 Calm 10.00 Fair CLR 34 31.8 92% 30.12 0.0
03 06:35 Calm 10.00 Fair CLR 34.9 31.8 89% 30.12 0.0
03 06:15 Calm 10.00 Fair CLR 34 32 92% 30.11 0.0
03 05:55 SW 3 10.00 Fair CLR 33.8 31.6 92% 30.11 0.0
03 05:35 Calm 10.00 Fair CLR 34.7 31.6 89% 30.11 0.0
03 05:15 Calm 10.00 Fair CLR 34.2 31.1 89% 30.1 0.0
03 04:55 Calm 10.00 Fair CLR 34.7 31.6 89% 30.11 0.0
03 04:35 Calm 10.00 Fair CLR 34.7 31.3 87% 30.11 0.0
03 04:15 Calm 10.00 Fair CLR 35.1 31.3 86% 30.1 0.0
03 03:55 Calm 10.00 Fair CLR 35.1 31.1 86% 30.1 0.0
03 03:35 Calm 10.00 Fair CLR 35.4 30.7 83% 30.09 0.0
03 03:15 Calm 10.00 Fair CLR 37 30.4 77% 30.09 0.0
03 02:55 Calm 10.00 Fair CLR 37 30.2 76% 30.08 0.0
03 02:35 Calm 10.00 Fair CLR 37.6 29.8 74% 30.09 0.0
03 02:15 Calm 10.00 Fair CLR 38.3 30 72% 30.09 0.0
03 01:55 Calm 10.00 Partly Cloudy SCT070 39.4 29.7 50 39.2 68% 30.09 0.0
03 01:35 Calm 10.00 Partly Cloudy SCT070 40.3 29.3 65% 30.09 0.0
03 01:15 Calm 10.00 Fair CLR 39.9 30.2 68% 30.09 0.0
03 00:55 Calm 10.00 Fair CLR 40.5 30.6 68% 30.08 0.0
03 00:35 Calm 10.00 Fair CLR 41 30.6 66% 30.08 0.0
03 00:15 N 6 10.00 Fair CLR 41.4 31.1 67% 38 30.07 0.0
02 23:55 NE 5 10.00 Partly Cloudy SCT065 41 32.4 71% 38 30.07 0.0
02 23:35 NE 3 10.00 Mostly Cloudy BKN065 42.6 32.5 68% 30.07 0.0
02 23:15 N 3 10.00 Mostly Cloudy SCT065 BKN075 41.4 33.4 74% 30.06 0.0
02 22:55 Calm 10.00 Overcast BKN065 OVC075 45.1 32.9 62% 30.06 0.0
02 22:35 Calm 10.00 Overcast BKN065 OVC075 45.3 32.5 61% 30.05 0.0
02 22:15 Calm 10.00 Overcast SCT065 OVC075 45.7 31.6 58% 30.05 0.0
02 21:55 Calm 10.00 Mostly Cloudy BKN090 45.5 32 59% 30.05 0.0
02 21:35 Calm 10.00 Partly Cloudy SCT085 45.7 31.1 57% 30.04 0.0
02 21:15 Calm 10.00 Partly Cloudy SCT095 46.2 31.6 57% 30.04 0.0
02 20:55 Calm 10.00 Partly Cloudy SCT095 47.3 30.9 53% 30.03 0.0
02 20:35 N 3 10.00 Mostly Cloudy SCT070 BKN095 48.2 30.7 51% 30.03 0.0
02 20:15 N 5 10.00 Overcast SCT070 OVC095 49.3 30.4 48% 48 30.02 0.0
02 19:35 N 5 10.00 Overcast OVC095 51.1 31.1 46% 30.02 0.0
02 19:15 N 5 10.00 Overcast SCT070 OVC095 51.4 29.3 43% 30 0.0
02 18:55 N 7 10.00 Overcast SCT070 OVC095 52.2 30.2 43% 30 0.0
02 18:35 NW 7 10.00 Mostly Cloudy SCT070 BKN095 52.7 29.1 40% 30 0.0
02 18:15 N 6 10.00 Mostly Cloudy BKN095 53.8 28.8 38% 30 0.0
02 17:55 N 5 10.00 Overcast OVC095 53.8 29.3 39% 30 0.0
02 17:35 NW 5 10.00 Overcast OVC095 54 29.8 40% 30 0.0
02 17:15 NW 8 10.00 Overcast SCT065 SCT075 OVC095 53.6 28.9 39% 29.99 0.0
Date Time (edt) Wind (mph) Vis. (mi.) Weather Sky Cond. Air Dwpt Max. Min. Relative Humidity Wind Chill (°F) Heat Index (°F) altimeter (in) sea level (mb) 1 hr 3 hr 6 hr
6 hour
Temperature (ºF) Pressure Precipitation (in)